Time;durP1;ratioP1;P1;durP2;ratioP2;P2;SDS_P1;SDS_P2;PMS_P1;PMS_P2;Temp;Humidity;BMP_temperature;BMP_pressure;BME280_temperature;BME280_humidity;BME280_pressure;Samples;Min_cycle;Max_cycle;Signal;HPM_P1;HPM_P2
2022/02/09 00:08:20;;;;;;;7.50;4.73;;;;;;;5.41;91.60;99330.70;2225148;79;20999;-84
2022/02/09 00:10:36;;;;;;;7.47;4.10;;;;;;;5.38;91.45;99333.17;2243763;79;20992;-84
2022/02/09 00:14:00;;;;;;;5.20;4.07;;;;;;;5.33;91.34;99345.05;2246873;79;20936;-83
2022/02/09 00:26:42;;;;;;;12.70;4.73;;;;;;;5.07;91.27;99355.19;2247151;79;21367;-84
2022/02/09 00:32:55;;;;;;;9.57;5.17;;;;;;;4.96;91.53;99369.38;2225496;79;21347;-84
2022/02/09 00:42:33;;;;;;;150.47;106.27;;;;;;;4.92;94.81;99394.65;2246348;79;20995;-83
2022/02/09 01:11:44;;;;;;;8.30;5.30;;;;;;;4.58;90.84;99423.73;2250199;78;20948;-84
2022/02/09 01:38:05;;;;;;;12.27;8.67;;;;;;;5.44;86.94;99444.75;2250508;79;20992;-84
2022/02/09 01:42:05;;;;;;;13.37;9.63;;;;;;;5.12;87.82;99452.42;2248918;79;20929;-84
2022/02/09 01:57:06;;;;;;;12.47;8.07;;;;;;;4.38;90.49;99468.97;2292645;78;21003;-85
2022/02/09 02:00:07;;;;;;;14.10;7.83;;;;;;;4.32;90.95;99466.06;2292868;78;20909;-84
2022/02/09 02:03:07;;;;;;;13.20;7.47;;;;;;;4.32;91.32;99466.06;2292514;78;20909;-84
2022/02/09 02:06:08;;;;;;;10.47;7.57;;;;;;;4.32;91.40;99463.48;2292296;78;20907;-84
2022/02/09 02:09:08;;;;;;;10.93;7.90;;;;;;;4.35;91.46;99462.77;2291706;78;20916;-84
2022/02/09 02:12:17;;;;;;;13.13;8.53;;;;;;;4.38;91.88;99457.34;2290847;78;21063;-84
2022/02/09 02:15:52;;;;;;;13.50;9.13;;;;;;;4.43;92.05;99457.14;2290910;77;21055;-84
2022/02/09 02:18:27;;;;;;;10.63;7.57;;;;;;;4.51;92.02;99470.82;2288335;77;20989;-84
2022/02/09 02:28:30;;;;;;;11.37;8.83;;;;;;;4.66;92.29;99459.87;2270265;78;20965;-84
2022/02/09 02:31:32;;;;;;;12.67;9.10;;;;;;;4.71;91.93;99463.55;2288923;78;21411;-84
2022/02/09 02:35:10;;;;;;;11.27;8.23;;;;;;;4.77;91.95;99456.95;2289343;78;21064;-84
2022/02/09 03:08:08;;;;;;;11.30;8.10;;;;;;;5.17;92.44;99473.33;2291921;78;21007;-84
2022/02/09 03:12:41;;;;;;;10.13;7.87;;;;;;;5.30;92.95;99472.66;2269554;78;20979;-84
2022/02/09 03:19:01;;;;;;;10.77;8.70;;;;;;;5.32;93.23;99468.42;2270062;78;21008;-83
2022/02/09 03:31:14;;;;;;;11.17;8.93;;;;;;;5.42;93.18;99476.17;2288299;78;21020;-85
2022/02/09 03:44:25;;;;;;;16.13;11.07;;;;;;;5.49;93.82;99483.78;2292083;78;20960;-84
2022/02/09 03:57:00;;;;;;;13.00;10.60;;;;;;;5.53;93.59;99481.80;2269640;78;20996;-84
2022/02/09 04:00:00;;;;;;;15.60;11.03;;;;;;;5.55;93.57;99479.74;2290293;78;20992;-83
2022/02/09 04:03:01;;;;;;;18.83;12.13;;;;;;;5.56;93.73;99475.45;2290579;78;21039;-84
2022/02/09 04:06:02;;;;;;;18.07;13.00;;;;;;;5.56;93.75;99478.92;2291520;78;21394;-82
2022/02/09 04:09:05;;;;;;;18.10;13.33;;;;;;;5.59;93.88;99479.46;2291279;78;20920;-83
2022/02/09 04:12:08;;;;;;;13.67;11.07;;;;;;;5.59;93.56;99470.40;2291340;78;21040;-81
2022/02/09 04:47:35;;;;;;;9.10;6.80;;;;;;;5.68;94.06;99472.95;2288521;78;21039;-83
2022/02/09 04:50:34;;;;;;;9.77;7.57;;;;;;;5.68;93.83;99479.43;2290329;77;21006;-83
2022/02/09 04:57:00;;;;;;;8.17;6.47;;;;;;;5.71;93.70;99487.33;2291017;78;20995;-82
2022/02/09 05:00:18;;;;;;;12.00;8.13;;;;;;;5.71;93.61;99486.03;2290319;77;20952;-83
2022/02/09 05:26:08;;;;;;;14.37;9.17;;;;;;;5.74;93.24;99497.81;2266350;78;20987;-82
2022/02/09 05:29:07;;;;;;;11.57;9.13;;;;;;;5.75;93.42;99507.35;2289100;78;20987;-84
2022/02/09 05:32:07;;;;;;;11.10;9.30;;;;;;;5.73;93.44;99498.63;2289984;78;21003;-84
2022/02/09 05:35:08;;;;;;;12.87;9.40;;;;;;;5.74;93.34;99505.59;2289942;78;21002;-83
2022/02/09 05:38:08;;;;;;;12.63;9.20;;;;;;;5.75;93.26;99507.77;2289061;78;20967;-83
2022/02/09 05:41:09;;;;;;;12.67;9.67;;;;;;;5.77;93.50;99507.41;2289592;78;20987;-82
2022/02/09 05:44:11;;;;;;;11.53;9.33;;;;;;;5.78;93.41;99516.95;2288676;78;20951;-83
2022/02/09 05:50:40;;;;;;;12.13;9.63;;;;;;;5.81;93.45;99516.20;2266595;78;21067;-82
2022/02/09 05:53:56;;;;;;;12.63;10.10;;;;;;;5.83;93.50;99520.63;2277796;77;21072;-83
2022/02/09 05:56:46;;;;;;;12.90;10.07;;;;;;;5.86;93.41;99522.45;2276052;78;21093;-82
2022/02/09 05:59:44;;;;;;;13.83;10.77;;;;;;;5.88;93.53;99528.58;2278388;78;21435;-81
2022/02/09 06:02:44;;;;;;;13.50;9.90;;;;;;;5.90;93.72;99530.45;2279159;78;20964;-82
2022/02/09 06:05:45;;;;;;;11.67;10.37;;;;;;;5.93;94.03;99530.58;2279291;77;20962;-82
2022/02/09 06:08:46;;;;;;;10.97;9.03;;;;;;;5.94;93.61;99530.16;2279351;78;21013;-82
2022/02/09 06:11:51;;;;;;;9.63;8.17;;;;;;;5.96;93.81;99534.59;2279761;77;21004;-82
2022/02/09 06:21:19;;;;;;;14.73;13.03;;;;;;;5.99;93.68;99545.48;2278140;78;20993;-80
2022/02/09 06:27:21;;;;;;;14.57;12.53;;;;;;;6.02;93.54;99549.50;2257924;78;20973;-83
2022/02/09 06:30:22;;;;;;;12.37;10.73;;;;;;;6.05;93.57;99548.33;2278137;78;21052;-81
2022/02/09 06:33:22;;;;;;;13.80;9.90;;;;;;;6.06;93.75;99548.80;2279062;78;20996;-83
2022/02/09 06:36:25;;;;;;;10.80;9.73;;;;;;;6.05;93.73;99550.52;2280074;77;20915;-82
2022/02/09 06:39:26;;;;;;;12.00;9.73;;;;;;;6.08;93.56;99554.97;2279475;78;21045;-82
2022/02/09 06:42:28;;;;;;;14.20;10.23;;;;;;;6.11;93.53;99557.69;2278535;78;21004;-82
2022/02/09 06:45:35;;;;;;;18.93;11.70;;;;;;;6.13;93.65;99559.05;2278573;78;21052;-82
2022/02/09 06:48:32;;;;;;;16.17;10.37;;;;;;;6.16;93.49;99555.28;2277469;77;21064;-82
2022/02/09 06:51:34;;;;;;;18.53;10.67;;;;;;;6.17;93.54;99565.71;2271946;77;21000;-83
2022/02/09 06:54:44;;;;;;;15.43;11.30;;;;;;;6.21;93.47;99564.13;2245594;79;21035;-83
2022/02/09 06:58:00;;;;;;;26.90;13.10;;;;;;;6.25;93.56;99564.31;2244231;79;21019;-81
2022/02/09 07:00:48;;;;;;;20.30;15.10;;;;;;;6.28;93.43;99565.73;2243842;77;20978;-82
2022/02/09 07:03:49;;;;;;;30.77;21.13;;;;;;;6.33;93.28;99568.50;2246139;78;20947;-82
2022/02/09 07:06:49;;;;;;;32.87;20.20;;;;;;;6.38;93.35;99565.27;2247216;79;20947;-82
2022/02/09 07:09:52;;;;;;;23.53;16.57;;;;;;;6.43;93.14;99561.98;2225019;79;21023;-82
2022/02/09 07:12:52;;;;;;;19.60;13.20;;;;;;;6.47;93.14;99562.57;2247144;78;21448;-82
2022/02/09 07:15:56;;;;;;;16.80;11.67;;;;;;;6.51;92.94;99567.05;2247472;78;21006;-80
2022/02/09 07:18:55;;;;;;;19.43;12.13;;;;;;;6.54;93.13;99573.66;2247521;76;21020;-80
2022/02/09 07:21:56;;;;;;;17.50;13.73;;;;;;;6.54;92.97;99569.36;2247882;79;20955;-82
2022/02/09 07:25:08;;;;;;;26.40;21.70;;;;;;;6.59;92.97;99579.50;2248018;78;20963;-82
2022/02/09 07:28:05;;;;;;;30.80;20.07;;;;;;;6.64;92.71;99575.78;2246817;76;21078;-81
2022/02/09 07:31:07;;;;;;;20.10;16.57;;;;;;;6.65;92.74;99577.55;2246756;78;21482;-82
2022/02/09 07:34:07;;;;;;;18.03;14.93;;;;;;;6.70;92.72;99573.43;2246563;79;20956;-82
2022/02/09 07:37:09;;;;;;;15.27;11.90;;;;;;;6.73;92.60;99576.14;2246378;79;20984;-81
2022/02/09 07:40:11;;;;;;;16.80;12.83;;;;;;;6.76;92.36;99582.75;2247283;79;20987;-81
2022/02/09 07:43:22;;;;;;;20.57;13.20;;;;;;;6.76;92.14;99586.64;2246489;79;21429;-82
2022/02/09 07:49:26;;;;;;;17.07;11.33;;;;;;;6.78;91.79;99584.98;2224768;79;20928;-82
2022/02/09 07:52:26;;;;;;;16.70;10.33;;;;;;;6.79;91.31;99584.16;2259885;78;21496;-83
2022/02/09 07:55:27;;;;;;;17.47;10.80;;;;;;;6.77;90.84;99575.84;2278237;78;21044;-82
2022/02/09 07:58:27;;;;;;;20.83;11.13;;;;;;;6.77;90.84;99575.84;2278689;78;20965;-81
2022/02/09 08:01:27;;;;;;;16.43;9.43;;;;;;;6.79;90.60;99578.97;2278902;78;20941;-82
2022/02/09 08:04:28;;;;;;;14.40;9.30;;;;;;;6.85;90.38;99574.42;2279707;77;20934;-82
2022/02/09 08:07:29;;;;;;;15.70;8.83;;;;;;;6.92;90.01;99581.20;2280026;77;20918;-82
2022/02/09 08:10:40;;;;;;;16.43;9.00;;;;;;;6.92;89.61;99583.80;2280672;77;20891;-81
2022/02/09 08:23:51;;;;;;;9.40;6.17;;;;;;;6.90;88.95;99585.87;2279039;77;21001;-80
2022/02/09 08:29:49;;;;;;;9.03;5.57;;;;;;;7.08;88.65;99594.38;2257522;78;21306;-80
2022/02/09 08:32:55;;;;;;;11.43;6.40;;;;;;;7.11;87.62;99616.98;2278337;78;21037;-81
2022/02/09 08:35:54;;;;;;;10.93;5.73;;;;;;;6.97;87.67;99593.98;2279518;78;21010;-82
2022/02/09 08:38:54;;;;;;;12.47;5.93;;;;;;;6.92;88.27;99593.30;2280623;77;21428;-82
2022/02/09 08:41:55;;;;;;;12.63;9.37;;;;;;;6.88;88.47;99587.11;2280637;77;21004;-82
2022/02/09 08:44:55;;;;;;;11.33;6.90;;;;;;;6.91;88.67;99586.34;2280408;77;20954;-82
2022/02/09 08:47:59;;;;;;;11.30;6.80;;;;;;;6.92;88.37;99585.09;2280675;77;21302;-81
2022/02/09 08:50:58;;;;;;;10.47;5.87;;;;;;;6.92;88.62;99576.42;2279583;78;21438;-81
2022/02/09 08:53:58;;;;;;;12.63;5.73;;;;;;;6.97;88.31;99573.63;2253953;77;21015;-83
2022/02/09 08:57:02;;;;;;;10.20;5.87;;;;;;;7.00;88.28;99580.23;2247224;78;20991;-83
2022/02/09 09:00:10;;;;;;;11.77;6.93;;;;;;;7.00;88.35;99573.33;2247355;79;21016;-82
2022/02/09 09:03:24;;;;;;;12.57;7.40;;;;;;;7.06;88.28;99578.28;2247888;79;20971;-83
2022/02/09 09:06:25;;;;;;;12.33;7.45;;;;;;;6.95;88.68;99582.66;2246905;79;21019;-82
2022/02/09 09:09:30;;;;;;;11.33;8.67;;;;;;;6.94;88.99;99580.88;2247321;79;21047;-82
2022/02/09 09:58:02;;;;;;;5.50;4.77;;;;;;;7.34;89.63;99565.47;2246931;78;20974;-83
2022/02/09 09:58:53;;;;;;;9.90;6.93;;;;;;;7.43;89.94;99558.02;2248455;78;21024;-83
2022/02/09 10:01:48;;;;;;;10.80;9.37;;;;;;;7.44;90.12;99550.69;2244999;79;20959;-83
2022/02/09 10:05:06;;;;;;;11.43;9.90;;;;;;;7.49;90.14;99556.05;2244641;79;21011;-84
2022/02/09 10:33:47;;;;;;;21.77;14.77;;;;;;;7.80;89.64;99558.91;2247173;78;20984;-83
2022/02/09 10:36:49;;;;;;;19.07;15.90;;;;;;;7.81;89.53;99561.97;2246731;79;21320;-84
2022/02/09 10:40:03;;;;;;;16.47;13.83;;;;;;;7.83;89.84;99562.91;2248417;78;21355;-84
2022/02/09 10:43:03;;;;;;;18.80;14.50;;;;;;;7.85;89.73;99555.16;2247705;79;21042;-82
2022/02/09 10:46:03;;;;;;;17.40;14.17;;;;;;;7.83;89.86;99556.41;2247935;79;20991;-82
2022/02/09 10:49:04;;;;;;;19.67;15.10;;;;;;;7.83;89.80;99557.70;2247663;78;21095;-83
2022/02/09 10:52:15;;;;;;;21.37;15.53;;;;;;;7.85;90.01;99563.84;2247519;79;21023;-82
2022/02/09 10:55:07;;;;;;;25.57;17.00;;;;;;;7.87;90.13;99560.88;2245431;79;21030;-81
2022/02/09 10:58:07;;;;;;;24.77;17.03;;;;;;;7.89;90.11;99549.23;2248046;79;21375;-83
2022/02/09 11:01:08;;;;;;;21.70;16.10;;;;;;;7.92;90.04;99547.62;2248218;78;20999;-82
2022/02/09 11:04:08;;;;;;;27.07;17.57;;;;;;;7.90;89.67;99547.10;2247248;79;20920;-83
2022/02/09 11:07:09;;;;;;;20.13;12.97;;;;;;;7.96;89.78;99540.81;2246919;78;21034;-82
2022/02/09 11:10:09;;;;;;;19.20;13.43;;;;;;;8.07;89.55;99542.05;2247475;79;21409;-83
2022/02/09 11:13:10;;;;;;;17.87;12.37;;;;;;;8.11;89.23;99532.21;2247685;79;21276;-83
2022/02/09 11:16:12;;;;;;;18.40;12.17;;;;;;;8.16;89.29;99536.26;2247886;79;21370;-83
2022/02/09 11:19:15;;;;;;;14.73;11.50;;;;;;;8.14;88.86;99531.01;2247355;79;21055;-83
2022/02/09 11:22:23;;;;;;;13.27;10.20;;;;;;;8.12;88.94;99528.77;2247586;78;21031;-83
2022/02/09 11:25:27;;;;;;;15.27;11.57;;;;;;;8.03;88.76;99524.58;2246586;79;20971;-84
2022/02/09 11:28:36;;;;;;;11.30;10.07;;;;;;;8.04;89.04;99521.56;2245739;79;21434;-82
2022/02/09 11:31:35;;;;;;;14.67;13.03;;;;;;;8.04;89.04;99521.56;2246111;79;21040;-84
2022/02/09 11:34:33;;;;;;;14.97;13.00;;;;;;;8.02;89.32;99525.41;2246402;79;21086;-83
2022/02/09 11:37:40;;;;;;;14.13;11.70;;;;;;;7.95;89.65;99522.14;2246381;79;21031;-82
2022/02/09 11:44:21;;;;;;;8.73;7.93;;;;;;;7.93;90.15;99526.41;2225873;79;20936;-82
2022/02/09 11:47:19;;;;;;;9.50;8.40;;;;;;;7.96;90.30;99530.41;2244116;79;20983;-83
2022/02/09 12:00:13;;;;;;;15.20;13.70;;;;;;;7.78;90.80;99531.06;2258670;78;21006;-82
2022/02/09 12:12:33;;;;;;;18.70;16.70;;;;;;;7.58;91.74;99549.88;2258254;78;21029;-78
2022/02/09 12:15:44;;;;;;;17.07;15.20;;;;;;;7.58;91.74;99549.88;2278806;78;21498;-81
2022/02/09 12:18:39;;;;;;;14.53;13.10;;;;;;;7.56;91.89;99539.42;2276881;77;21053;-81
2022/02/09 12:22:36;;;;;;;15.67;14.07;;;;;;;7.55;92.94;99540.26;2278611;78;21045;-82
2022/02/09 12:24:44;;;;;;;22.43;16.47;;;;;;;7.55;93.48;99538.08;2275606;78;21099;-81
2022/02/09 12:27:44;;;;;;;21.30;17.30;;;;;;;7.56;92.76;99538.13;2278681;78;20961;-80
2022/02/09 12:30:45;;;;;;;19.13;15.23;;;;;;;7.57;92.52;99544.20;2279003;78;20949;-82
2022/02/09 12:33:47;;;;;;;22.13;15.20;;;;;;;7.57;92.68;99536.00;2279202;78;20958;-83
2022/02/09 12:36:48;;;;;;;23.37;16.83;;;;;;;7.60;92.90;99528.30;2278519;78;21981;-82
2022/02/09 12:39:48;;;;;;;20.03;16.30;;;;;;;7.64;92.74;99536.67;2278305;78;21021;-81
2022/02/09 12:42:49;;;;;;;16.33;13.37;;;;;;;7.70;92.69;99539.90;2278723;78;20938;-81
2022/02/09 12:45:49;;;;;;;15.43;12.77;;;;;;;7.69;92.91;99539.43;2279591;78;20946;-82
2022/02/09 12:48:50;;;;;;;13.57;12.17;;;;;;;7.66;92.52;99534.13;2280204;78;20981;-82
2022/02/09 12:51:51;;;;;;;15.70;14.00;;;;;;;7.67;92.87;99534.59;2279451;78;21000;-80
2022/02/09 12:54:51;;;;;;;13.13;11.63;;;;;;;7.63;92.80;99531.02;2254768;77;21108;-79
2022/02/09 12:57:53;;;;;;;15.13;13.17;;;;;;;7.60;93.12;99537.41;2246945;78;20951;-81
2022/02/09 13:00:53;;;;;;;10.07;9.07;;;;;;;7.60;92.77;99532.62;2246650;78;21465;-82
2022/02/09 13:03:54;;;;;;;12.73;9.33;;;;;;;7.60;92.77;99532.62;2246166;79;20976;-82
2022/02/09 13:06:54;;;;;;;14.23;11.93;;;;;;;7.56;93.07;99533.34;2245885;78;21330;-80
2022/02/09 13:09:56;;;;;;;14.83;11.10;;;;;;;7.58;92.93;99538.18;2246289;78;21393;-79
2022/02/09 13:13:02;;;;;;;15.63;11.57;;;;;;;7.61;92.98;99540.47;2245852;78;20947;-79
2022/02/09 13:16:30;;;;;;;15.30;11.77;;;;;;;7.59;92.94;99535.63;2244948;77;20948;-80
2022/02/09 13:19:27;;;;;;;16.60;13.67;;;;;;;7.60;93.13;99538.70;2242360;79;21067;-80
2022/02/09 13:25:38;;;;;;;16.17;11.60;;;;;;;7.59;93.14;99534.33;2221479;79;20986;-79
2022/02/09 13:51:57;;;;;;;34.30;25.97;;;;;;;7.56;92.92;99544.63;2245194;78;21011;-79
2022/02/09 14:10:16;;;;;;;25.13;15.93;;;;;;;7.40;92.77;99528.45;2255347;78;20992;-80
2022/02/09 14:17:18;;;;;;;24.10;15.70;;;;;;;7.45;92.60;99541.18;2274562;78;21333;-79
2022/02/09 14:53:16;;;;;;;25.90;18.10;;;;;;;7.29;91.35;99550.14;2259473;78;20981;-80
2022/02/09 14:59:21;;;;;;;29.07;17.87;;;;;;;7.25;91.10;99548.27;2261778;78;21320;-80
2022/02/09 15:02:23;;;;;;;21.90;15.50;;;;;;;7.24;90.79;99548.68;2282575;77;20945;-76
2022/02/09 15:08:58;;;;;;;26.00;17.97;;;;;;;7.19;91.04;99559.31;2282346;77;21033;-79
2022/02/09 15:11:58;;;;;;;18.90;14.23;;;;;;;7.17;91.36;99552.30;2281800;78;20985;-80
2022/02/09 15:18:33;;;;;;;22.00;15.03;;;;;;;7.15;91.31;99542.27;2260257;78;21061;-80
2022/02/09 15:21:37;;;;;;;20.60;15.33;;;;;;;7.13;91.34;99544.81;2281306;77;20965;-80
2022/02/09 15:24:27;;;;;;;18.87;14.27;;;;;;;7.13;91.22;99550.00;2281378;78;21092;-78
2022/02/09 15:27:25;;;;;;;21.37;13.93;;;;;;;7.10;91.06;99549.89;2283926;78;21492;-80
2022/02/09 15:30:34;;;;;;;19.63;14.33;;;;;;;7.10;91.06;99544.70;2284833;77;20974;-80
2022/02/09 15:33:45;;;;;;;20.50;14.57;;;;;;;7.12;90.90;99548.23;2280985;77;21017;-79
2022/02/09 15:37:11;;;;;;;27.90;16.67;;;;;;;7.13;90.80;99544.81;2281378;78;21033;-80
2022/02/09 15:39:50;;;;;;;20.23;14.37;;;;;;;7.17;90.88;99538.02;2279180;78;21124;-78
2022/02/09 16:05:42;;;;;;;20.00;14.43;;;;;;;7.11;90.38;99530.89;2279752;78;20993;-80
2022/02/09 16:09:11;;;;;;;26.47;17.67;;;;;;;7.11;90.78;99537.38;2278588;78;20961;-79
2022/02/09 16:38:04;;;;;;;19.40;14.27;;;;;;;7.25;90.67;99523.59;2281492;78;21336;-80
2022/02/09 16:44:37;;;;;;;18.67;14.00;;;;;;;7.24;90.97;99521.41;2280170;78;21016;-81
2022/02/09 16:50:48;;;;;;;22.27;15.43;;;;;;;7.24;90.82;99523.13;2280470;78;21001;-81
2022/02/09 16:57:04;;;;;;;25.20;18.20;;;;;;;7.28;90.88;99522.41;2226655;79;21440;-80
2022/02/09 17:19:53;;;;;;;25.37;15.00;;;;;;;7.27;91.83;99536.22;2247581;78;21402;-84
2022/02/09 17:22:53;;;;;;;20.07;13.60;;;;;;;10.25;100.00;99522.31;2247352;79;21014;-81
2022/02/09 17:25:54;;;;;;;13.90;11.57;;;;;;;13.05;100.00;99524.99;2247427;79;20955;-80
2022/02/09 17:29:02;;;;;;;18.93;11.20;;;;;;;14.89;94.13;99515.39;2249043;78;20925;-80
2022/02/09 17:32:08;;;;;;;15.30;10.80;;;;;;;15.97;85.70;99516.20;2248137;79;21018;-81
2022/02/09 17:35:10;;;;;;;12.53;10.38;;;;;;;17.07;81.06;99520.95;2247642;79;20968;-80
2022/02/09 17:38:24;;;;;;;13.55;9.85;;;;;;;17.92;76.68;99518.80;2247504;77;20940;-80
2022/02/09 17:57:43;;;;;;;15.98;10.05;;;;;;;12.74;63.50;99529.34;2258026;78;21026;-85
2022/02/09 18:00:39;;;;;;;14.78;10.25;;;;;;;11.46;66.75;99520.19;2278462;77;20973;-82
2022/02/09 18:03:41;;;;;;;13.45;9.43;;;;;;;10.52;69.00;99512.55;2280817;78;21424;-84
2022/02/09 18:06:46;;;;;;;13.50;9.38;;;;;;;9.74;71.41;99515.35;2279546;78;21021;-81
2022/02/09 18:09:48;;;;;;;12.17;8.50;;;;;;;9.11;73.38;99519.26;2278650;78;20957;-84
2022/02/09 18:13:22;;;;;;;11.93;8.97;;;;;;;8.66;75.50;99510.96;2278807;78;21105;-80
2022/02/09 18:29:30;;;;;;;11.70;9.30;;;;;;;7.67;79.67;99508.20;2280030;77;21012;-82
2022/02/09 18:46:08;;;;;;;15.20;9.17;;;;;;;7.16;82.01;99494.30;2281767;77;20989;-82
2022/02/09 19:05:31;;;;;;;13.38;7.10;;;;;;;6.87;82.56;99494.51;2268968;78;21016;-83
2022/02/09 19:15:10;;;;;;;21.47;10.97;;;;;;;6.79;82.80;99501.12;2291125;78;21039;-84
2022/02/09 19:18:01;;;;;;;32.37;14.63;;;;;;;6.71;82.82;99508.63;2288844;77;20994;-83
2022/02/09 19:26:10;;;;;;;22.07;10.97;;;;;;;6.68;82.95;99522.78;2291175;77;21063;-83
2022/02/09 19:44:38;;;;;;;16.77;9.40;;;;;;;6.46;83.31;99511.11;2268778;78;20996;-83
2022/02/09 19:46:59;;;;;;;19.67;9.90;;;;;;;6.45;83.32;99520.13;2287406;77;21059;-83
2022/02/09 19:56:34;;;;;;;14.73;8.87;;;;;;;6.41;83.14;99527.32;2282851;77;21104;-82
2022/02/09 19:59:37;;;;;;;13.77;8.63;;;;;;;6.37;83.20;99533.69;2280149;78;21409;-82
2022/02/09 20:02:40;;;;;;;14.93;8.73;;;;;;;6.36;83.25;99535.80;2281105;78;21021;-83
2022/02/09 20:05:39;;;;;;;13.83;8.70;;;;;;;6.33;83.23;99538.28;2280899;77;21546;-83
2022/02/09 20:08:40;;;;;;;12.87;8.70;;;;;;;6.32;83.17;99534.33;2282037;77;20976;-84
2022/02/09 20:11:43;;;;;;;13.37;8.80;;;;;;;6.30;83.17;99523.89;2280462;77;21005;-82
2022/02/09 20:14:47;;;;;;;12.03;8.50;;;;;;;6.27;83.11;99525.07;2281091;78;21010;-83
2022/02/09 20:17:45;;;;;;;18.73;8.33;;;;;;;6.26;83.15;99528.90;2281763;78;21038;-84
2022/02/09 20:20:46;;;;;;;12.40;9.13;;;;;;;6.23;83.04;99523.19;2281982;78;21428;-83
2022/02/09 20:23:47;;;;;;;15.90;8.90;;;;;;;6.20;82.95;99527.36;2282116;78;20934;-84
2022/02/09 20:26:52;;;;;;;16.57;10.70;;;;;;;6.19;82.92;99529.48;2281244;78;21408;-83
2022/02/09 20:29:51;;;;;;;15.17;9.83;;;;;;;6.19;82.75;99533.37;2280716;78;21068;-84
2022/02/09 20:32:57;;;;;;;15.20;9.97;;;;;;;6.19;82.49;99540.73;2281973;77;20966;-84
2022/02/09 20:35:54;;;;;;;19.13;9.80;;;;;;;6.16;82.48;99531.53;2281788;77;21050;-84
2022/02/09 20:38:57;;;;;;;14.57;10.13;;;;;;;6.15;82.20;99528.47;2282101;77;20911;-80
2022/02/09 20:41:58;;;;;;;14.33;10.13;;;;;;;6.16;81.94;99526.77;2282026;78;21057;-80
2022/02/09 20:45:14;;;;;;;13.23;9.50;;;;;;;6.14;81.95;99524.11;2282621;78;20974;-83
2022/02/09 20:48:13;;;;;;;10.77;8.63;;;;;;;6.13;82.01;99524.05;2281335;78;21027;-84
2022/02/09 20:54:13;;;;;;;17.27;9.37;;;;;;;6.17;81.67;99518.16;2262008;78;21010;-84
2022/02/09 20:57:14;;;;;;;17.03;9.73;;;;;;;6.16;81.61;99510.80;2292023;77;20995;-83
2022/02/09 21:00:22;;;;;;;12.27;9.27;;;;;;;6.14;81.36;99507.27;2291471;78;20979;-83
2022/02/09 21:07:06;;;;;;;13.43;8.97;;;;;;;6.11;81.26;99507.55;2265549;78;20976;-83
2022/02/09 21:10:13;;;;;;;14.50;9.27;;;;;;;6.09;81.25;99504.90;2287336;77;21668;-82
2022/02/09 21:13:07;;;;;;;12.97;8.70;;;;;;;6.08;81.08;99509.61;2286310;77;21083;-82
2022/02/09 21:16:20;;;;;;;14.73;9.33;;;;;;;6.09;80.91;99509.20;2288131;78;21044;-84
2022/02/09 21:22:49;;;;;;;16.55;9.08;;;;;;;6.04;80.90;99513.75;2267895;78;20975;-83
2022/02/09 21:42:26;;;;;;;14.43;9.83;;;;;;;6.01;80.40;99519.22;2291739;78;21032;-84
2022/02/09 21:45:11;;;;;;;12.67;9.27;;;;;;;6.00;80.53;99518.34;2288610;77;20982;-83
2022/02/09 21:54:32;;;;;;;11.30;8.17;;;;;;;5.99;80.33;99507.91;2289874;78;20991;-82
2022/02/09 21:57:38;;;;;;;12.10;9.03;;;;;;;6.00;80.43;99509.68;2288775;77;21083;-84
2022/02/09 22:00:59;;;;;;;15.50;8.90;;;;;;;5.99;80.29;99510.09;2288044;77;21059;-82
2022/02/09 22:19:09;;;;;;;13.30;9.23;;;;;;;5.99;79.80;99503.61;2290214;77;21016;-79
2022/02/09 22:46:11;;;;;;;13.57;10.17;;;;;;;5.90;80.11;99498.47;2293460;78;21000;-80
2022/02/09 22:55:19;;;;;;;21.77;12.30;;;;;;;5.89;80.07;99492.78;2285314;77;20992;-82
2022/02/09 22:58:16;;;;;;;16.93;10.07;;;;;;;5.87;80.15;99488.83;2241736;79;21385;-81
2022/02/09 23:01:33;;;;;;;14.20;9.77;;;;;;;5.90;80.16;99483.81;2243540;79;21026;-80
2022/02/09 23:04:38;;;;;;;12.67;9.23;;;;;;;5.91;79.95;99484.28;2240866;79;20945;-82
2022/02/09 23:08:01;;;;;;;12.37;9.10;;;;;;;5.93;79.98;99486.94;2241523;79;20948;-84
2022/02/09 23:17:46;;;;;;;13.87;8.60;;;;;;;5.92;79.82;99469.62;2221386;79;20984;-85
2022/02/09 23:53:29;;;;;;;21.97;8.83;;;;;;;6.04;79.32;99472.28;2240702;79;20987;-82
